Nome, AK

6:01 AM AKDT on August 03, 2015 (GMT -0800)
BA Airport | | Change Station
CLOSE
Current Station
Personal Weather Station
Location: Nome, AK
Elevation: 37 ft
Nearby Weather Stations

Elev 37 ft 64.51 °N, 165.45 °W | Updated 1 minute ago

Overcast
Overcast
47.8 °F
Feels Like 43 °F
N
10.0
Wind Variable Wind from West
Gusts 10.0 mph

Today
High -- | Low -- °F
--% Chance of Precip.
Yesterday
High -- | Low -- °F
Precip. -- in
6:11 AM 0:01 AM
Waning Gibbous, 86% visible
Pressure 30.15 in
Visibility 10.0 miles
Clouds Overcast 900 ft
Windchill 43 °F
Dew Point 46 °F
Humidity 95%
Rainfall 0.00 in
Snow Depth Not available.
UV 0 out of 12
Pollen Not available.
Air Quality Not available.
Flu Activity Not available.
METAR PAOM 031353Z 29008KT 10SM OVC009 08/08 A3015 RMK SLP210 T00830078 VIA AUTODIAL

More Conditions Fewer Conditions

Pressure 30.15 in
Visibility 10.0 miles
Clouds Overcast 900 ft
Windchill 43 °F
Dew Point 46 °F
Humidity 95%
Rainfall 0.00 in
Snow Depth Not available.
UV 0 out of 12
Pollen Not available.
Air Quality Not available.
Flu Activity Not available.
METAR PAOM 031353Z 29008KT 10SM OVC009 08/08 A3015 RMK SLP210 T00830078 VIA AUTODIAL

More Conditions Fewer Conditions

10-Day Weather Forecast

×

Almanac

Astronomy

Aug. 03, 2015 Rise Set
Actual Time
Civil Twilight
Nautical Twilight
Astronomical Twilight
Moon
Length of Visible Light
Length of Day
Tomorrow will be .
, % of the Moon is Illuminated

Today's Extremes

State Highs State Lows

Community

WunderPhotos

Upload Photos

1,843,636 photos uploaded!

WunderBlogs® & News

Nearby

Air Quality

  Air Quality AQ Index Pollutant
Not available.

Snow Depth

Station Depth Elevation

Earthquake Activity

City Distance Mag. Time & Date
Minimum magnitude displayed is 2.5.

Coastal Water Temperatures

Place Temperature

Stations

Nearby Weather Stations

Station Location Temp. Windchill Dew Point Humidity Wind Precip. Elev Updated Type